Time;durP1;ratioP1;P1;durP2;ratioP2;P2;SDS_P1;SDS_P2;PMS_P1;PMS_P2;Temp;Humidity;BMP_temperature;BMP_pressure;BME280_temperature;BME280_humidity;BME280_pressure;Samples;Min_cycle;Max_cycle;Signal;HPM_P1;HPM_P2
2021/03/13 00:01:10;;;;;;;5.50;1.10;;;10.20;99.90;;;;;;5039289;28;20176;-76
2021/03/13 00:03:36;;;;;;;3.53;0.95;;;10.20;99.90;;;;;;5036618;28;21010;-77
2021/03/13 00:06:02;;;;;;;2.30;1.00;;;10.20;99.90;;;;;;5017638;28;20173;-77
2021/03/13 00:08:29;;;;;;;1.70;0.70;;;10.20;99.90;;;;;;5021583;28;20675;-78
2021/03/13 00:10:55;;;;;;;2.95;0.90;;;10.20;99.90;;;;;;5021267;28;20236;-77
2021/03/13 00:13:21;;;;;;;3.70;0.90;;;10.10;99.90;;;;;;5044240;28;20186;-76
2021/03/13 00:15:47;;;;;;;1.65;0.90;;;10.00;99.90;;;;;;5041966;28;20621;-76
2021/03/13 00:18:14;;;;;;;2.45;0.98;;;10.00;99.90;;;;;;5036592;28;20215;-76
2021/03/13 00:20:42;;;;;;;4.15;0.90;;;9.90;99.90;;;;;;5054848;28;20189;-76
2021/03/13 00:23:08;;;;;;;2.10;0.90;;;9.80;99.90;;;;;;5029550;28;20532;-76
2021/03/13 00:25:35;;;;;;;4.47;0.70;;;9.80;99.90;;;;;;5046560;28;20173;-76
2021/03/13 00:28:02;;;;;;;3.67;0.88;;;9.80;99.90;;;;;;5054474;28;20173;-76
2021/03/13 00:30:30;;;;;;;2.63;1.23;;;9.70;99.90;;;;;;5054639;28;20301;-76
2021/03/13 00:33:09;;;;;;;1.92;0.88;;;9.70;99.90;;;;;;5017021;28;20227;-76
2021/03/13 00:35:35;;;;;;;5.75;0.77;;;9.60;99.90;;;;;;5017100;28;20532;-76
2021/03/13 00:38:02;;;;;;;2.17;0.80;;;9.60;99.90;;;;;;5034438;28;20197;-76
2021/03/13 00:40:30;;;;;;;2.40;0.80;;;9.60;99.90;;;;;;5034600;28;20243;-76
2021/03/13 00:42:57;;;;;;;1.80;0.60;;;9.60;99.90;;;;;;5017108;28;20231;-76
2021/03/13 00:45:24;;;;;;;3.33;0.80;;;9.50;99.90;;;;;;5034528;28;20166;-76
2021/03/13 00:47:51;;;;;;;1.48;0.63;;;9.50;99.90;;;;;;5016725;28;20165;-76
2021/03/13 00:50:20;;;;;;;1.95;0.70;;;9.50;99.90;;;;;;5034416;28;20549;-77
2021/03/13 00:52:48;;;;;;;2.85;0.80;;;9.50;99.90;;;;;;5004871;28;20529;-77
2021/03/13 00:55:15;;;;;;;5.43;1.55;;;9.40;99.90;;;;;;5034225;28;20585;-76
2021/03/13 00:57:46;;;;;;;2.92;1.10;;;9.30;99.90;;;;;;5024745;28;20193;-76
2021/03/13 01:00:18;;;;;;;2.58;1.08;;;9.30;99.90;;;;;;4999917;28;20197;-76
2021/03/13 01:02:44;;;;;;;3.13;0.90;;;9.30;99.90;;;;;;4998870;28;20289;-76
2021/03/13 01:05:11;;;;;;;4.15;1.15;;;9.30;99.90;;;;;;5016598;28;20169;-76
2021/03/13 01:07:39;;;;;;;6.20;1.00;;;9.30;99.90;;;;;;5033857;28;20260;-76
2021/03/13 01:10:13;;;;;;;5.75;1.35;;;9.20;99.90;;;;;;5016075;28;20331;-76
2021/03/13 01:12:39;;;;;;;2.75;1.42;;;9.20;99.90;;;;;;5016460;28;20205;-76
2021/03/13 01:15:11;;;;;;;2.35;1.10;;;9.20;99.90;;;;;;5016438;28;20177;-76
2021/03/13 01:17:38;;;;;;;3.67;1.05;;;9.20;99.90;;;;;;4999878;28;20542;-76
2021/03/13 01:20:10;;;;;;;3.05;1.30;;;9.20;99.90;;;;;;4999631;28;20648;-76
2021/03/13 01:22:36;;;;;;;4.05;1.13;;;9.20;99.90;;;;;;5016221;28;20169;-76
2021/03/13 01:25:04;;;;;;;4.20;1.17;;;9.20;99.90;;;;;;5016316;28;20185;-76
2021/03/13 01:27:30;;;;;;;4.93;1.63;;;9.30;99.90;;;;;;5033707;28;20264;-76
2021/03/13 01:29:55;;;;;;;2.57;1.40;;;9.30;99.90;;;;;;5036999;28;20672;-77
2021/03/13 01:32:22;;;;;;;1.70;1.00;;;9.30;99.90;;;;;;5016077;28;20200;-77
2021/03/13 01:34:48;;;;;;;2.60;1.40;;;9.40;99.90;;;;;;5016286;28;20173;-77
2021/03/13 01:37:15;;;;;;;4.10;1.57;;;9.40;99.90;;;;;;5016134;28;20177;-77
2021/03/13 01:39:44;;;;;;;4.68;1.73;;;9.40;99.90;;;;;;5000798;28;20695;-76
2021/03/13 01:42:14;;;;;;;2.38;1.42;;;9.40;99.90;;;;;;5001088;28;20189;-76
2021/03/13 01:44:41;;;;;;;2.78;1.20;;;9.40;99.90;;;;;;4999895;28;20165;-76
2021/03/13 01:47:24;;;;;;;5.50;1.90;;;9.40;99.90;;;;;;5015703;28;20158;-76
2021/03/13 01:49:54;;;;;;;4.60;1.60;;;9.50;99.90;;;;;;5015621;28;20190;-76
2021/03/13 01:52:25;;;;;;;2.75;1.42;;;9.50;99.90;;;;;;5033313;28;20170;-76
2021/03/13 01:54:52;;;;;;;3.60;1.50;;;9.50;99.90;;;;;;4999355;28;20257;-77
2021/03/13 01:57:19;;;;;;;3.05;1.52;;;9.50;99.90;;;;;;5033080;28;20176;-76
2021/03/13 01:59:47;;;;;;;3.38;1.65;;;9.50;99.90;;;;;;5020331;28;20184;-76
2021/03/13 02:02:15;;;;;;;2.80;1.60;;;9.50;99.90;;;;;;5047648;28;20173;-76
2021/03/13 02:04:41;;;;;;;1.55;1.10;;;9.50;99.90;;;;;;5012279;28;20176;-77
2021/03/13 02:07:22;;;;;;;3.90;1.40;;;9.60;99.90;;;;;;5028780;28;20180;-76
2021/03/13 02:10:14;;;;;;;1.67;1.15;;;9.50;99.90;;;;;;5034632;28;20204;-76
2021/03/13 02:13:03;;;;;;;2.40;1.50;;;9.60;99.90;;;;;;5034862;28;20215;-76
2021/03/13 02:15:36;;;;;;;2.63;1.02;;;9.50;99.90;;;;;;5035313;28;20605;-76
2021/03/13 02:18:28;;;;;;;2.67;1.10;;;9.50;99.90;;;;;;5034586;28;20626;-76
2021/03/13 02:21:14;;;;;;;1.90;0.73;;;9.50;99.90;;;;;;5045588;22;20221;-78
2021/03/13 02:24:12;;;;;;;2.47;1.00;;;9.50;99.90;;;;;;5030398;28;20174;-79
2021/03/13 02:26:51;;;;;;;2.75;0.90;;;9.50;99.90;;;;;;5042788;28;20174;-78
2021/03/13 02:29:35;;;;;;;1.20;0.80;;;9.50;99.90;;;;;;5030814;28;20226;-79
2021/03/13 02:32:07;;;;;;;1.60;0.70;;;9.40;99.90;;;;;;5021346;28;20515;-79
2021/03/13 02:34:39;;;;;;;1.10;0.60;;;9.40;99.90;;;;;;5011598;28;20166;-79
2021/03/13 02:37:13;;;;;;;1.30;0.65;;;9.40;99.90;;;;;;5028638;28;20189;-80
2021/03/13 02:39:46;;;;;;;2.08;0.60;;;9.40;99.90;;;;;;5009849;28;20185;-80
2021/03/13 02:42:14;;;;;;;1.90;0.60;;;9.40;99.90;;;;;;5014507;28;20674;-79
2021/03/13 02:44:44;;;;;;;1.63;0.70;;;9.40;99.90;;;;;;5014694;28;20170;-80
2021/03/13 02:47:18;;;;;;;1.40;0.60;;;9.40;99.90;;;;;;5030747;28;20180;-80
2021/03/13 02:49:51;;;;;;;1.30;0.60;;;9.40;99.90;;;;;;5014743;28;20209;-80
2021/03/13 02:52:27;;;;;;;1.48;0.70;;;9.40;99.90;;;;;;5017719;28;20198;-80
2021/03/13 02:54:56;;;;;;;1.00;0.57;;;9.40;99.90;;;;;;5023802;28;20181;-79
2021/03/13 02:57:25;;;;;;;1.08;0.60;;;9.40;99.90;;;;;;5007613;28;20273;-79
2021/03/13 02:59:53;;;;;;;1.33;0.60;;;9.30;99.90;;;;;;5030131;28;20579;-80
2021/03/13 03:02:22;;;;;;;1.20;0.70;;;9.30;99.90;;;;;;5019283;28;20761;-80
2021/03/13 03:04:51;;;;;;;2.00;0.70;;;9.30;99.90;;;;;;5010104;28;20334;-80
2021/03/13 03:07:25;;;;;;;1.88;0.60;;;9.30;99.90;;;;;;5026349;28;20193;-79
2021/03/13 03:09:53;;;;;;;1.73;0.70;;;9.30;99.90;;;;;;5022192;28;20170;-79
2021/03/13 03:12:20;;;;;;;1.30;0.50;;;9.30;99.90;;;;;;5030137;28;20268;-79
2021/03/13 03:14:53;;;;;;;1.05;0.50;;;9.30;99.90;;;;;;5022321;28;20170;-80
2021/03/13 03:17:20;;;;;;;1.10;0.50;;;9.30;99.90;;;;;;5029941;28;20179;-80
2021/03/13 03:19:48;;;;;;;1.40;0.52;;;9.30;99.90;;;;;;5029049;28;20174;-80
2021/03/13 03:22:17;;;;;;;1.00;0.50;;;9.30;99.90;;;;;;5027090;28;20216;-80
2021/03/13 03:24:48;;;;;;;1.77;0.60;;;9.30;99.90;;;;;;4994374;28;20241;-80
2021/03/13 03:27:14;;;;;;;1.10;0.45;;;9.30;99.90;;;;;;5015697;28;20173;-79
2021/03/13 03:29:44;;;;;;;1.60;0.50;;;9.30;99.90;;;;;;5006056;28;20719;-79
2021/03/13 03:32:13;;;;;;;1.00;0.50;;;9.30;99.90;;;;;;5029741;28;20417;-79
2021/03/13 03:34:39;;;;;;;1.30;0.87;;;9.30;99.90;;;;;;5014054;28;20248;-79
2021/03/13 03:37:06;;;;;;;1.10;0.50;;;9.30;99.90;;;;;;5013434;28;20659;-79
2021/03/13 03:39:34;;;;;;;1.13;0.47;;;9.40;99.90;;;;;;5030812;28;20193;-79
2021/03/13 03:42:03;;;;;;;1.20;0.40;;;9.40;99.90;;;;;;5006174;28;20186;-79
2021/03/13 03:44:42;;;;;;;1.20;0.40;;;9.40;99.90;;;;;;5029649;28;20716;-79
2021/03/13 03:47:13;;;;;;;1.20;0.50;;;9.40;99.90;;;;;;5021772;28;20641;-79
2021/03/13 03:49:45;;;;;;;1.10;0.45;;;9.40;99.90;;;;;;5030120;28;20208;-79
2021/03/13 03:52:24;;;;;;;1.20;0.50;;;9.40;99.90;;;;;;5028376;28;20196;-79
2021/03/13 03:54:52;;;;;;;1.10;0.40;;;9.50;99.90;;;;;;5021945;28;20205;-77
2021/03/13 03:57:21;;;;;;;1.10;0.47;;;9.50;99.90;;;;;;5030442;28;20169;-79
2021/03/13 03:59:47;;;;;;;1.00;0.50;;;9.60;99.90;;;;;;5030062;28;20244;-79
2021/03/13 04:02:13;;;;;;;1.55;0.40;;;9.60;99.90;;;;;;5013955;28;20201;-78
2021/03/13 04:04:40;;;;;;;1.10;0.50;;;9.60;99.90;;;;;;5017633;28;20168;-79
2021/03/13 04:07:08;;;;;;;1.00;0.40;;;9.60;99.90;;;;;;5037258;28;20173;-79
2021/03/13 04:09:34;;;;;;;1.00;0.40;;;9.60;99.90;;;;;;5054492;28;20154;-79
2021/03/13 04:12:04;;;;;;;0.80;0.40;;;9.70;99.90;;;;;;5054392;28;20197;-79
2021/03/13 04:14:32;;;;;;;0.90;0.40;;;9.70;99.90;;;;;;5047972;28;20177;-79
2021/03/13 04:16:58;;;;;;;0.88;0.40;;;9.70;99.90;;;;;;5031108;28;20178;-80
2021/03/13 04:19:26;;;;;;;0.80;0.40;;;9.70;99.90;;;;;;5014724;28;20664;-79
2021/03/13 04:21:52;;;;;;;2.10;0.47;;;9.70;99.90;;;;;;5031036;28;20221;-79
2021/03/13 04:24:18;;;;;;;1.52;0.40;;;9.70;99.90;;;;;;5031415;28;20257;-79
2021/03/13 04:26:45;;;;;;;0.93;0.45;;;9.70;99.90;;;;;;5031532;28;20166;-79
2021/03/13 04:29:11;;;;;;;1.00;0.40;;;9.70;99.90;;;;;;5030275;28;20178;-79
2021/03/13 04:31:38;;;;;;;1.00;0.40;;;9.70;99.90;;;;;;5013640;28;20189;-79
2021/03/13 04:34:04;;;;;;;1.00;0.50;;;9.70;99.90;;;;;;5031298;28;21023;-79
2021/03/13 04:36:32;;;;;;;0.90;0.40;;;9.70;99.90;;;;;;5014752;28;20193;-80
2021/03/13 04:39:00;;;;;;;0.90;0.40;;;9.70;99.90;;;;;;5033466;28;20197;-79
2021/03/13 04:41:27;;;;;;;1.50;0.40;;;9.60;99.90;;;;;;5038246;28;20174;-80
2021/03/13 04:43:54;;;;;;;0.90;0.40;;;9.60;99.90;;;;;;5034926;28;20679;-80
2021/03/13 04:46:20;;;;;;;1.17;0.47;;;9.60;99.90;;;;;;5034709;28;20245;-79
2021/03/13 04:48:47;;;;;;;0.90;0.40;;;9.60;99.90;;;;;;5032823;28;20170;-79
2021/03/13 04:51:17;;;;;;;1.85;0.47;;;9.60;99.90;;;;;;5004656;28;20327;-79
2021/03/13 04:53:44;;;;;;;1.00;0.40;;;9.60;99.90;;;;;;5023404;28;20225;-79
2021/03/13 04:56:10;;;;;;;1.02;0.50;;;9.70;99.90;;;;;;5005685;28;20185;-79
2021/03/13 04:58:37;;;;;;;1.00;0.50;;;9.70;99.90;;;;;;5046697;28;20255;-79
2021/03/13 05:01:03;;;;;;;1.60;0.40;;;9.70;99.90;;;;;;5034328;28;20205;-80
2021/03/13 05:03:29;;;;;;;1.67;0.50;;;9.70;99.90;;;;;;5033287;28;20166;-79
2021/03/13 05:05:55;;;;;;;1.20;0.40;;;9.70;99.90;;;;;;5028411;28;20170;-79
2021/03/13 05:08:20;;;;;;;1.00;0.50;;;9.70;99.90;;;;;;5006676;28;20189;-79
2021/03/13 05:10:46;;;;;;;2.43;0.50;;;9.70;99.90;;;;;;5024719;28;20197;-79
2021/03/13 05:13:12;;;;;;;1.07;0.47;;;9.80;99.90;;;;;;5026059;28;20217;-78
2021/03/13 05:15:38;;;;;;;1.20;0.47;;;9.70;99.90;;;;;;5024857;28;20171;-80
2021/03/13 05:18:04;;;;;;;1.00;0.50;;;9.80;99.90;;;;;;5026409;28;20204;-79
2021/03/13 05:20:30;;;;;;;1.15;0.47;;;9.80;99.90;;;;;;5033258;28;20561;-79
2021/03/13 05:22:58;;;;;;;1.20;0.40;;;9.80;99.90;;;;;;5024035;28;20209;-79
2021/03/13 05:25:24;;;;;;;1.27;0.50;;;9.90;99.90;;;;;;5025985;28;20197;-79
2021/03/13 05:27:50;;;;;;;1.27;0.50;;;9.90;99.90;;;;;;5023145;28;20211;-79
2021/03/13 05:30:16;;;;;;;1.35;0.50;;;9.90;99.90;;;;;;5024387;28;20181;-79
2021/03/13 05:32:42;;;;;;;1.33;0.50;;;9.90;99.90;;;;;;5025369;28;20209;-79
2021/03/13 05:35:10;;;;;;;0.90;0.40;;;10.00;99.90;;;;;;5024853;28;20198;-79
2021/03/13 05:37:37;;;;;;;1.17;0.55;;;10.00;99.90;;;;;;5026040;28;20636;-79
2021/03/13 05:40:05;;;;;;;1.10;0.50;;;10.00;99.90;;;;;;5024657;28;20170;-79
2021/03/13 05:42:31;;;;;;;1.75;0.50;;;10.10;99.90;;;;;;5010913;28;20251;-79
2021/03/13 05:44:58;;;;;;;1.20;0.40;;;10.10;99.90;;;;;;5030551;28;20608;-79
2021/03/13 05:47:26;;;;;;;1.33;0.50;;;10.10;99.90;;;;;;5030461;28;20660;-80
2021/03/13 05:50:04;;;;;;;1.45;0.40;;;10.20;99.90;;;;;;5023522;28;20166;-80
2021/03/13 05:52:46;;;;;;;1.00;0.40;;;10.20;99.90;;;;;;5027954;28;20194;-80
2021/03/13 05:55:24;;;;;;;1.00;0.50;;;10.20;99.90;;;;;;5019778;28;20169;-79
2021/03/13 05:57:57;;;;;;;2.78;0.60;;;10.20;99.90;;;;;;5016365;28;20271;-79
2021/03/13 06:00:23;;;;;;;1.65;0.50;;;10.20;99.90;;;;;;5031915;28;20224;-79
2021/03/13 06:02:50;;;;;;;1.60;0.50;;;10.20;99.90;;;;;;5031907;28;20174;-79
2021/03/13 06:05:16;;;;;;;2.08;0.50;;;10.30;99.90;;;;;;4995996;28;20265;-79
2021/03/13 06:07:43;;;;;;;1.80;0.52;;;10.20;99.90;;;;;;5032207;28;20188;-79
2021/03/13 06:10:13;;;;;;;1.48;0.50;;;10.30;99.90;;;;;;5022449;28;20180;-79
2021/03/13 06:12:38;;;;;;;1.23;0.50;;;10.30;99.90;;;;;;5030989;28;20186;-80
2021/03/13 06:15:05;;;;;;;1.97;0.60;;;10.30;99.90;;;;;;5022539;28;20534;-79
2021/03/13 06:17:51;;;;;;;1.60;0.73;;;10.30;99.90;;;;;;5032267;28;20178;-79
2021/03/13 06:20:22;;;;;;;1.15;0.50;;;10.40;99.90;;;;;;5020242;28;20181;-80
2021/03/13 06:22:50;;;;;;;2.22;0.60;;;10.40;99.90;;;;;;5025708;28;20173;-79
2021/03/13 06:25:33;;;;;;;1.15;0.40;;;10.40;99.90;;;;;;5020949;28;20242;-80
2021/03/13 06:28:14;;;;;;;1.77;0.50;;;10.50;99.90;;;;;;4995162;28;20185;-80
2021/03/13 06:30:43;;;;;;;2.15;0.50;;;10.50;99.90;;;;;;5011463;28;20701;-80
2021/03/13 06:33:30;;;;;;;1.20;0.47;;;10.50;99.90;;;;;;5013788;28;20774;-80
2021/03/13 06:35:57;;;;;;;1.38;0.50;;;10.50;99.90;;;;;;5012944;28;20174;-79
2021/03/13 06:38:25;;;;;;;1.30;0.40;;;10.60;99.90;;;;;;5012239;28;20191;-78
2021/03/13 06:40:56;;;;;;;1.10;0.40;;;10.60;99.90;;;;;;5012676;28;20194;-79
2021/03/13 06:43:30;;;;;;;1.08;0.50;;;10.60;99.90;;;;;;5012533;28;20228;-79
2021/03/13 06:46:09;;;;;;;1.35;0.60;;;10.70;99.90;;;;;;5011418;28;20568;-80
2021/03/13 06:48:36;;;;;;;1.00;0.47;;;10.70;99.90;;;;;;5010731;28;20697;-80
2021/03/13 06:51:32;;;;;;;1.20;0.50;;;10.70;99.90;;;;;;5011243;28;20186;-80
2021/03/13 06:54:17;;;;;;;1.25;0.40;;;10.70;99.90;;;;;;5011094;28;20176;-79
2021/03/13 06:56:55;;;;;;;1.63;0.40;;;10.80;99.90;;;;;;5029245;28;20228;-80
2021/03/13 06:59:25;;;;;;;1.58;1.20;;;10.80;99.90;;;;;;5030483;28;20673;-79
2021/03/13 07:02:02;;;;;;;1.40;0.50;;;10.90;99.90;;;;;;5037463;28;20253;-79
2021/03/13 07:04:30;;;;;;;1.20;0.50;;;10.90;99.90;;;;;;5016043;28;20522;-80
2021/03/13 07:06:56;;;;;;;1.60;0.50;;;10.90;99.90;;;;;;5032040;28;20223;-79
2021/03/13 07:09:45;;;;;;;1.60;0.50;;;10.90;99.90;;;;;;5034201;28;20165;-79
2021/03/13 07:12:26;;;;;;;1.75;0.50;;;11.00;99.90;;;;;;5032373;28;20603;-79
2021/03/13 07:14:52;;;;;;;1.20;0.50;;;11.00;99.90;;;;;;5030633;28;20184;-79
2021/03/13 07:17:19;;;;;;;2.53;0.60;;;11.00;99.90;;;;;;5031771;28;20170;-79
2021/03/13 07:19:45;;;;;;;1.98;0.80;;;11.00;99.90;;;;;;5030203;28;20525;-79
2021/03/13 07:22:12;;;;;;;1.63;0.60;;;11.00;99.90;;;;;;5026261;28;20229;-80
2021/03/13 07:24:40;;;;;;;1.00;0.50;;;11.10;99.90;;;;;;5025502;28;20603;-79
2021/03/13 07:27:11;;;;;;;4.10;0.70;;;11.10;99.90;;;;;;5020999;28;20176;-80
2021/03/13 07:29:40;;;;;;;1.02;0.40;;;11.10;99.90;;;;;;5010381;28;20170;-80
2021/03/13 07:32:13;;;;;;;1.30;0.50;;;11.20;99.90;;;;;;5010709;28;20222;-79
2021/03/13 07:34:41;;;;;;;1.00;0.43;;;11.20;99.90;;;;;;5021725;28;20208;-79
2021/03/13 07:37:13;;;;;;;1.00;0.50;;;11.30;99.90;;;;;;5030762;28;20281;-79
2021/03/13 07:39:41;;;;;;;1.30;0.52;;;11.30;99.90;;;;;;5022815;28;20193;-79
2021/03/13 07:42:19;;;;;;;1.13;0.55;;;11.30;99.90;;;;;;5021863;28;20202;-78
2021/03/13 07:44:46;;;;;;;1.70;0.60;;;11.30;99.90;;;;;;5014713;28;20204;-79
2021/03/13 07:47:17;;;;;;;1.08;0.63;;;11.30;99.90;;;;;;4998298;28;20182;-79
2021/03/13 07:49:43;;;;;;;2.67;0.80;;;11.30;99.90;;;;;;5011370;28;20181;-78
2021/03/13 07:52:11;;;;;;;3.88;1.00;;;11.30;99.90;;;;;;5025107;28;20280;-78
2021/03/13 07:54:41;;;;;;;1.30;0.60;;;11.30;99.90;;;;;;4993321;28;20555;-77
2021/03/13 07:57:08;;;;;;;2.80;0.55;;;11.20;99.90;;;;;;5037696;28;20181;-77
2021/03/13 07:59:47;;;;;;;2.85;0.50;;;10.90;99.90;;;;;;5027367;28;20198;-78
2021/03/13 08:02:33;;;;;;;2.75;0.50;;;10.50;99.90;;;;;;5021876;28;20228;-79
2021/03/13 08:05:10;;;;;;;1.00;0.40;;;10.20;99.90;;;;;;5013143;28;20174;-78
2021/03/13 08:07:57;;;;;;;2.00;0.40;;;9.80;99.90;;;;;;5023493;28;20181;-79
2021/03/13 08:10:50;;;;;;;2.40;0.50;;;9.60;99.90;;;;;;5012640;28;20181;-79
2021/03/13 08:13:28;;;;;;;1.55;0.50;;;9.30;99.90;;;;;;5032390;28;20180;-79
2021/03/13 08:16:06;;;;;;;1.30;0.65;;;9.10;99.90;;;;;;5025016;28;20256;-79
2021/03/13 08:18:51;;;;;;;1.77;0.50;;;9.00;99.90;;;;;;5034256;28;20193;-79
2021/03/13 08:21:22;;;;;;;2.45;0.60;;;8.80;99.90;;;;;;5027397;28;20224;-80
2021/03/13 08:23:54;;;;;;;1.30;0.57;;;8.80;99.90;;;;;;5039306;28;20197;-80
2021/03/13 08:26:40;;;;;;;2.65;0.68;;;8.70;99.90;;;;;;5033954;28;20178;-80
2021/03/13 08:29:07;;;;;;;1.88;0.70;;;8.70;99.90;;;;;;5016155;23;20223;-78
2021/03/13 08:31:48;;;;;;;1.30;0.50;;;8.70;99.90;;;;;;5054510;28;20168;-78
2021/03/13 08:34:19;;;;;;;1.33;0.50;;;8.80;99.90;;;;;;5024448;28;20633;-79
2021/03/13 08:36:49;;;;;;;1.27;0.50;;;8.90;99.90;;;;;;5040507;28;20179;-79
2021/03/13 08:39:34;;;;;;;1.40;0.50;;;8.90;99.90;;;;;;5020053;28;20209;-79
2021/03/13 08:42:00;;;;;;;1.10;0.50;;;9.00;99.90;;;;;;5036913;28;20172;-79
2021/03/13 08:44:26;;;;;;;0.93;0.50;;;9.10;99.90;;;;;;5059962;28;20173;-79
2021/03/13 08:46:58;;;;;;;3.17;0.57;;;9.20;99.90;;;;;;5053546;28;20621;-79
2021/03/13 08:49:27;;;;;;;1.25;0.50;;;9.30;99.90;;;;;;5053373;28;20594;-79
2021/03/13 08:52:08;;;;;;;1.25;0.60;;;9.40;99.90;;;;;;5053098;28;20218;-78
2021/03/13 08:54:37;;;;;;;2.22;0.60;;;9.50;99.90;;;;;;5037119;28;20521;-77
2021/03/13 08:57:25;;;;;;;1.48;0.50;;;9.60;99.90;;;;;;5052994;28;20183;-78
2021/03/13 08:59:54;;;;;;;2.60;0.80;;;9.60;99.90;;;;;;5035218;28;21271;-78
2021/03/13 09:02:25;;;;;;;1.58;0.50;;;9.70;99.90;;;;;;5053303;28;20169;-78
2021/03/13 09:05:00;;;;;;;1.27;0.60;;;9.80;99.90;;;;;;5037447;28;20727;-78
2021/03/13 09:07:28;;;;;;;1.10;0.60;;;9.90;99.90;;;;;;5038062;28;20176;-79
2021/03/13 09:09:59;;;;;;;2.37;0.60;;;10.00;99.90;;;;;;5054121;28;20189;-78
2021/03/13 09:12:27;;;;;;;3.78;1.00;;;10.10;99.90;;;;;;5053999;28;20192;-79
2021/03/13 09:14:59;;;;;;;2.45;0.90;;;10.20;99.90;;;;;;5036387;28;20513;-78
2021/03/13 09:17:27;;;;;;;7.63;1.05;;;10.20;99.90;;;;;;5020212;28;20291;-78
2021/03/13 09:20:01;;;;;;;2.00;0.65;;;10.30;99.90;;;;;;5037651;28;20193;-78
2021/03/13 09:22:27;;;;;;;4.50;1.02;;;10.40;99.90;;;;;;5042195;28;20185;-78
2021/03/13 09:24:55;;;;;;;4.27;0.77;;;10.40;99.90;;;;;;5032093;28;20230;-78
2021/03/13 09:27:26;;;;;;;3.00;0.80;;;10.50;99.90;;;;;;5068375;28;20586;-79
2021/03/13 09:30:13;;;;;;;2.65;0.70;;;10.50;99.90;;;;;;5035894;28;20201;-76
2021/03/13 09:32:52;;;;;;;2.97;0.70;;;10.50;99.90;;;;;;5070041;28;20173;-78
2021/03/13 09:35:26;;;;;;;1.98;0.80;;;10.60;99.90;;;;;;5037759;28;20236;-78
2021/03/13 09:37:52;;;;;;;2.92;0.80;;;10.60;99.90;;;;;;5048800;28;20227;-78
2021/03/13 09:40:22;;;;;;;5.30;0.88;;;10.60;99.90;;;;;;5037336;28;20219;-78
2021/03/13 09:43:08;;;;;;;1.60;0.70;;;10.60;99.90;;;;;;5049105;28;20686;-78
2021/03/13 09:45:35;;;;;;;7.28;0.90;;;10.60;99.90;;;;;;5029858;28;20579;-78
2021/03/13 09:48:03;;;;;;;2.25;0.80;;;10.60;99.90;;;;;;5081577;28;20237;-80
2021/03/13 09:50:37;;;;;;;2.58;0.80;;;10.60;99.90;;;;;;5085253;28;20196;-78
2021/03/13 09:53:06;;;;;;;1.98;0.80;;;10.60;99.90;;;;;;5063910;28;20199;-78
2021/03/13 09:55:37;;;;;;;2.70;0.80;;;10.60;99.90;;;;;;5058134;28;20164;-78
2021/03/13 09:58:07;;;;;;;1.90;0.70;;;10.70;99.90;;;;;;5061246;28;20200;-78
2021/03/13 10:00:41;;;;;;;3.58;0.80;;;10.70;99.90;;;;;;5074765;28;20294;-78
2021/03/13 10:03:16;;;;;;;2.50;0.80;;;10.70;99.90;;;;;;5057270;28;20707;-78
2021/03/13 10:05:42;;;;;;;3.25;0.90;;;10.80;99.90;;;;;;5039001;28;20175;-78
2021/03/13 10:08:14;;;;;;;3.40;0.80;;;10.80;99.90;;;;;;5038483;28;20172;-78
2021/03/13 10:10:45;;;;;;;3.92;0.90;;;10.90;99.90;;;;;;5038677;28;20172;-78
2021/03/13 10:13:21;;;;;;;3.70;0.70;;;10.90;99.90;;;;;;5071946;28;20168;-78
2021/03/13 10:15:47;;;;;;;4.35;1.15;;;10.90;99.90;;;;;;5038273;28;20659;-78
2021/03/13 10:18:15;;;;;;;2.28;0.77;;;10.90;99.90;;;;;;5037294;28;20196;-77
2021/03/13 10:20:48;;;;;;;2.75;0.90;;;11.00;99.90;;;;;;5050162;28;20164;-78
2021/03/13 10:23:15;;;;;;;3.55;1.02;;;11.20;99.90;;;;;;5018433;28;20535;-77
2021/03/13 10:25:43;;;;;;;3.58;1.00;;;11.40;99.90;;;;;;5060154;28;20204;-78
2021/03/13 10:28:11;;;;;;;4.95;0.80;;;11.90;99.90;;;;;;5036692;28;20180;-78
2021/03/13 10:30:44;;;;;;;3.20;0.80;;;12.40;99.90;;;;;;5037868;28;20180;-78
2021/03/13 10:33:30;;;;;;;3.10;0.90;;;12.70;99.90;;;;;;5039501;28;20172;-79
2021/03/13 10:35:55;;;;;;;4.13;1.08;;;13.00;99.90;;;;;;5042082;28;20222;-78
2021/03/13 10:38:21;;;;;;;2.10;0.80;;;13.30;99.90;;;;;;5037680;28;20632;-78
2021/03/13 10:40:49;;;;;;;3.27;1.10;;;13.60;99.90;;;;;;5054541;28;20176;-77
2021/03/13 10:43:24;;;;;;;3.08;0.90;;;13.80;99.90;;;;;;5072512;28;20569;-78
2021/03/13 10:45:58;;;;;;;5.57;0.80;;;14.00;99.90;;;;;;5038001;28;20632;-78
2021/03/13 10:48:25;;;;;;;3.80;1.02;;;14.30;99.90;;;;;;5054476;28;20264;-78
2021/03/13 10:50:51;;;;;;;6.07;0.70;;;14.40;99.90;;;;;;5054362;28;20171;-78
2021/03/13 10:53:40;;;;;;;4.40;0.90;;;14.60;99.90;;;;;;5054254;28;20555;-78
2021/03/13 10:56:11;;;;;;;2.77;0.80;;;14.80;99.90;;;;;;5042302;28;20639;-79
2021/03/13 10:58:49;;;;;;;3.90;0.80;;;15.10;99.90;;;;;;5030438;28;21271;-76
2021/03/13 11:01:18;;;;;;;4.53;1.27;;;15.40;99.90;;;;;;5070519;28;20586;-78
2021/03/13 11:03:51;;;;;;;3.70;1.00;;;15.90;99.90;;;;;;5037581;28;20590;-79
2021/03/13 11:06:28;;;;;;;3.33;1.00;;;16.40;99.90;;;;;;5055520;28;20677;-79
2021/03/13 11:08:56;;;;;;;2.43;0.93;;;16.50;99.90;;;;;;5053649;28;20626;-79
2021/03/13 11:11:22;;;;;;;5.57;1.10;;;16.50;99.90;;;;;;5038105;28;20567;-77
2021/03/13 11:13:48;;;;;;;4.17;0.97;;;16.30;99.90;;;;;;5041517;28;20900;-78
2021/03/13 11:16:14;;;;;;;3.43;0.90;;;16.00;99.90;;;;;;5070384;28;20264;-78
2021/03/13 11:18:42;;;;;;;4.50;1.23;;;15.70;99.60;;;;;;5053399;28;20647;-77
2021/03/13 11:21:08;;;;;;;4.10;1.07;;;15.60;99.90;;;;;;5071740;28;20595;-78
2021/03/13 11:23:35;;;;;;;7.20;1.10;;;15.70;99.90;;;;;;5053786;28;20640;-77
2021/03/13 11:26:01;;;;;;;4.60;0.90;;;15.90;99.90;;;;;;5052603;28;20573;-78
2021/03/13 11:28:26;;;;;;;3.37;1.17;;;16.20;99.90;;;;;;5069652;28;20611;-77
2021/03/13 11:30:52;;;;;;;2.83;1.00;;;16.50;99.90;;;;;;5034373;28;20195;-78
2021/03/13 11:33:18;;;;;;;3.40;0.90;;;16.70;99.90;;;;;;5036766;28;20199;-78
2021/03/13 11:35:44;;;;;;;3.83;1.00;;;16.80;99.90;;;;;;5045704;28;20169;-78
2021/03/13 11:38:10;;;;;;;5.33;1.20;;;16.70;99.40;;;;;;5033313;28;20649;-78
2021/03/13 11:40:36;;;;;;;6.30;1.10;;;16.70;99.20;;;;;;5035486;28;20618;-79
2021/03/13 11:43:02;;;;;;;3.47;0.90;;;16.60;98.20;;;;;;5053495;28;21365;-78
2021/03/13 11:45:29;;;;;;;6.87;1.47;;;16.40;97.80;;;;;;5071918;28;20611;-78
2021/03/13 11:47:56;;;;;;;4.50;1.20;;;16.20;97.30;;;;;;5035755;28;20675;-78
2021/03/13 11:50:29;;;;;;;6.83;1.60;;;16.00;96.30;;;;;;5050022;28;20644;-77
2021/03/13 11:53:00;;;;;;;5.33;1.70;;;15.80;96.90;;;;;;5070413;28;20563;-78
2021/03/13 11:55:26;;;;;;;4.53;1.30;;;15.80;97.30;;;;;;5053339;28;20559;-77
2021/03/13 11:57:53;;;;;;;6.63;1.60;;;15.80;97.80;;;;;;5071034;28;20573;-78
2021/03/13 12:00:19;;;;;;;4.63;1.43;;;15.90;97.30;;;;;;5069821;28;20185;-78
2021/03/13 12:02:45;;;;;;;9.53;2.03;;;15.90;96.40;;;;;;5053376;28;20563;-76
2021/03/13 12:05:12;;;;;;;5.00;1.30;;;15.60;95.70;;;;;;5070953;28;20669;-77
2021/03/13 12:07:39;;;;;;;6.18;1.20;;;15.30;95.70;;;;;;5070601;28;20628;-78
2021/03/13 12:10:07;;;;;;;3.53;1.10;;;14.80;95.90;;;;;;5052963;28;20607;-77
2021/03/13 12:12:39;;;;;;;4.97;1.20;;;14.50;96.30;;;;;;5052770;28;20188;-77
2021/03/13 12:15:07;;;;;;;6.70;1.98;;;14.10;97.00;;;;;;5053206;28;20168;-78
2021/03/13 12:17:37;;;;;;;8.35;1.38;;;13.90;98.30;;;;;;5037147;28;20530;-77
2021/03/13 12:20:16;;;;;;;6.03;1.20;;;13.80;99.80;;;;;;5036854;28;20257;-77
2021/03/13 12:22:46;;;;;;;7.03;2.07;;;13.90;99.90;;;;;;5052001;28;20652;-79
2021/03/13 12:25:16;;;;;;;8.97;4.07;;;14.10;99.90;;;;;;5036643;28;20670;-78
2021/03/13 12:27:44;;;;;;;6.07;2.03;;;14.30;99.90;;;;;;5056641;28;20650;-79
2021/03/13 12:30:14;;;;;;;4.10;1.40;;;14.50;99.90;;;;;;5053155;28;20713;-77
2021/03/13 12:32:45;;;;;;;6.22;2.17;;;14.50;99.90;;;;;;5053892;28;20574;-79
2021/03/13 12:35:11;;;;;;;6.00;2.03;;;14.60;99.90;;;;;;5069955;28;20178;-78
2021/03/13 12:37:39;;;;;;;6.37;2.03;;;14.60;99.90;;;;;;5052788;28;20259;-78
2021/03/13 12:40:08;;;;;;;4.65;1.70;;;14.50;99.90;;;;;;5036602;28;20607;-78
2021/03/13 12:42:35;;;;;;;5.05;1.55;;;14.50;99.90;;;;;;5069590;28;20199;-79
2021/03/13 12:45:03;;;;;;;3.17;0.90;;;14.40;99.90;;;;;;5071182;28;20167;-81
2021/03/13 12:47:29;;;;;;;8.93;1.45;;;14.30;99.90;;;;;;5053351;28;20624;-81
2021/03/13 12:49:55;;;;;;;7.93;1.20;;;14.10;99.90;;;;;;5034663;28;20230;-82
2021/03/13 12:52:23;;;;;;;4.32;1.27;;;13.90;99.90;;;;;;5053830;28;20164;-82
2021/03/13 12:54:54;;;;;;;3.85;1.30;;;13.70;99.90;;;;;;5067879;28;20165;-81
2021/03/13 12:57:20;;;;;;;3.15;1.33;;;13.60;99.80;;;;;;5018157;28;20185;-82
2021/03/13 12:59:51;;;;;;;7.60;2.25;;;13.40;99.70;;;;;;5037475;28;20193;-81
2021/03/13 13:02:32;;;;;;;6.32;2.25;;;13.20;99.20;;;;;;5062335;28;20161;-82
2021/03/13 13:05:07;;;;;;;8.63;2.15;;;12.80;99.20;;;;;;5042860;28;20243;-83
2021/03/13 13:07:42;;;;;;;9.38;2.67;;;12.50;98.70;;;;;;5039773;28;20628;-83
2021/03/13 13:10:26;;;;;;;6.20;1.92;;;12.10;98.90;;;;;;5033459;28;20197;-83